createdAt,value
2023-03-28T00:02:02.150Z,10.10
2023-03-28T00:04:45.916Z,6.60
2023-03-28T00:07:16.838Z,6.90
2023-03-28T00:09:57.999Z,7.70
2023-03-28T00:12:48.890Z,7.70
2023-03-28T00:15:23.040Z,8.60
2023-03-28T00:18:14.639Z,7.70
2023-03-28T00:20:55.522Z,11.10
2023-03-28T00:23:46.400Z,7.70
2023-03-28T00:26:16.901Z,9.90
2023-03-28T00:28:53.013Z,8.60
2023-03-28T00:31:38.096Z,9.70
2023-03-28T00:34:09.357Z,7.90
2023-03-28T00:36:54.090Z,8.30
2023-03-28T00:39:27.841Z,8.70
2023-03-28T00:42:13.256Z,9.90
2023-03-28T00:45:04.296Z,7.80
2023-03-28T00:47:51.761Z,10.70
2023-03-28T00:50:38.613Z,9.80
2023-03-28T00:53:29.616Z,5.30
2023-03-28T00:56:18.976Z,6.70
2023-03-28T00:59:07.968Z,7.80
2023-03-28T01:01:50.027Z,8.60
2023-03-28T01:04:49.619Z,9.10
2023-03-28T01:07:21.716Z,6.90
2023-03-28T01:12:55.934Z,10.70
2023-03-28T01:15:34.297Z,8.30
2023-03-28T01:18:26.522Z,10.70
2023-03-28T01:21:31.442Z,6.70
2023-03-28T01:24:53.689Z,7.40
2023-03-28T01:27:33.868Z,8.70
2023-03-28T01:30:39.241Z,9.60
2023-03-28T01:33:49.858Z,6.70
2023-03-28T01:37:09.586Z,12.00
2023-03-28T01:40:26.176Z,8.00
2023-03-28T01:43:34.457Z,7.50
2023-03-28T01:46:31.824Z,6.50
2023-03-28T01:49:31.716Z,7.10
2023-03-28T01:52:29.587Z,9.30
2023-03-28T01:55:20.028Z,8.90
2023-03-28T02:01:05.433Z,7.50
2023-03-28T02:04:06.512Z,9.70
2023-03-28T02:07:00.441Z,8.60
2023-03-28T02:09:48.040Z,8.70
2023-03-28T02:12:48.494Z,8.80
2023-03-28T02:15:37.668Z,9.80
2023-03-28T02:18:34.621Z,9.40
2023-03-28T02:21:48.563Z,9.60
2023-03-28T02:24:39.383Z,8.80
2023-03-28T02:27:39.462Z,8.40
2023-03-28T02:30:37.019Z,10.80
2023-03-28T02:33:37.889Z,9.10
2023-03-28T02:36:41.119Z,9.60
2023-03-28T02:39:44.046Z,11.30
2023-03-28T02:42:38.728Z,10.60
2023-03-28T02:45:30.674Z,12.00
2023-03-28T02:48:13.381Z,9.20
2023-03-28T02:51:15.450Z,11.30
2023-03-28T02:54:25.200Z,11.80
2023-03-28T02:57:25.867Z,11.40
2023-03-28T03:00:12.236Z,8.60
2023-03-28T03:03:05.493Z,13.10
2023-03-28T03:05:50.184Z,9.40
2023-03-28T03:08:33.775Z,9.90
2023-03-28T03:11:15.942Z,8.40
2023-03-28T03:13:50.585Z,13.60
2023-03-28T03:16:40.215Z,7.30
2023-03-28T03:19:31.880Z,9.90
2023-03-28T03:22:21.965Z,8.60
2023-03-28T03:25:14.717Z,8.50
2023-03-28T03:28:09.242Z,10.60
2023-03-28T03:30:50.361Z,11.40
2023-03-28T03:33:44.322Z,8.70
2023-03-28T03:36:30.328Z,10.00
2023-03-28T03:39:21.340Z,7.90
2023-03-28T03:42:12.867Z,11.40
2023-03-28T03:47:53.774Z,9.40
2023-03-28T03:50:24.702Z,10.10
2023-03-28T03:53:15.880Z,14.00
2023-03-28T03:55:53.215Z,9.30
2023-03-28T03:58:44.177Z,11.30
2023-03-28T04:01:29.997Z,9.40
2023-03-28T04:04:21.097Z,13.20
2023-03-28T04:07:11.858Z,14.00
2023-03-28T04:10:02.687Z,8.10
2023-03-28T04:12:44.230Z,9.70
2023-03-28T04:15:35.249Z,9.90
2023-03-28T04:18:25.013Z,8.80
2023-03-28T04:21:10.313Z,9.10
2023-03-28T04:24:04.029Z,10.50
2023-03-28T04:27:03.647Z,10.40
2023-03-28T04:29:55.047Z,11.40
2023-03-28T04:32:49.665Z,12.80
2023-03-28T04:35:39.096Z,9.90
2023-03-28T04:38:31.896Z,9.40
2023-03-28T04:41:22.776Z,10.30
2023-03-28T04:44:13.578Z,10.10
2023-03-28T04:47:04.372Z,12.60
2023-03-28T04:49:55.419Z,9.00
2023-03-28T04:52:46.432Z,11.20
2023-03-28T04:55:37.819Z,10.50
2023-03-28T04:58:28.977Z,8.50
2023-03-28T05:01:19.767Z,10.00
2023-03-28T05:04:20.272Z,9.20
2023-03-28T05:07:11.338Z,10.10
2023-03-28T05:10:02.043Z,8.70
2023-03-28T05:12:53.064Z,11.10
2023-03-28T05:15:37.621Z,13.30
2023-03-28T05:18:47.489Z,11.30
2023-03-28T05:21:24.869Z,9.50
2023-03-28T05:24:15.730Z,12.00
2023-03-28T05:27:24.559Z,10.70
2023-03-28T05:30:07.937Z,13.20
2023-03-28T05:32:58.778Z,8.90
2023-03-28T05:35:50.224Z,11.00
2023-03-28T05:38:24.846Z,12.10
2023-03-28T05:41:15.717Z,11.20
2023-03-28T05:44:06.603Z,11.50
2023-03-28T05:47:00.158Z,11.80
2023-03-28T05:49:52.571Z,7.70
2023-03-28T05:52:45.406Z,13.50
2023-03-28T05:55:36.392Z,11.10
2023-03-28T05:58:17.627Z,10.20
2023-03-28T06:01:09.618Z,11.90
2023-03-28T06:04:00.436Z,11.40
2023-03-28T06:06:51.741Z,10.40
2023-03-28T06:09:43.056Z,10.70
2023-03-28T06:15:14.019Z,13.60
2023-03-28T06:20:54.909Z,10.70
2023-03-28T06:23:45.821Z,13.20
2023-03-28T06:26:37.385Z,10.50
2023-03-28T06:32:19.268Z,11.60
2023-03-28T06:35:11.672Z,11.00
2023-03-28T06:38:02.819Z,12.20
2023-03-28T06:40:53.715Z,11.70
2023-03-28T06:43:44.774Z,12.20
2023-03-28T06:46:35.645Z,13.90
2023-03-28T06:49:16.691Z,11.40
2023-03-28T06:52:06.370Z,10.70
2023-03-28T06:54:59.127Z,10.30
2023-03-28T06:57:39.056Z,11.60
2023-03-28T07:00:24.730Z,13.10
2023-03-28T07:03:14.878Z,12.90
2023-03-28T07:06:10.069Z,12.10
2023-03-28T07:09:02.226Z,11.60
2023-03-28T07:11:51.835Z,10.30
2023-03-28T07:14:44.779Z,14.40
2023-03-28T07:17:35.838Z,13.80
2023-03-28T07:20:28.237Z,10.90
2023-03-28T07:23:19.150Z,9.60
2023-03-28T07:25:58.048Z,10.40
2023-03-28T07:28:32.935Z,9.10
2023-03-28T07:31:17.130Z,10.50
2023-03-28T07:34:01.987Z,9.90
2023-03-28T07:36:43.376Z,10.70
2023-03-28T07:39:34.575Z,8.80
2023-03-28T07:42:13.896Z,11.00
2023-03-28T07:44:46.785Z,12.60
2023-03-28T07:47:21.366Z,11.70
2023-03-28T07:50:01.192Z,10.20
2023-03-28T07:52:45.804Z,11.10
2023-03-28T07:55:17.391Z,10.20
2023-03-28T07:57:52.023Z,8.80
2023-03-28T08:00:42.039Z,12.10
2023-03-28T08:03:42.916Z,11.00
2023-03-28T08:06:29.203Z,13.40
2023-03-28T08:09:22.860Z,12.60
2023-03-28T08:12:13.810Z,7.90
2023-03-28T08:14:46.980Z,10.20
2023-03-28T08:17:20.242Z,9.30
2023-03-28T08:20:02.276Z,8.50
2023-03-28T08:22:53.448Z,8.00
2023-03-28T08:25:48.170Z,10.00
2023-03-28T08:28:22.326Z,10.40
2023-03-28T08:30:55.589Z,8.00
2023-03-28T08:33:44.159Z,10.10
2023-03-28T08:36:16.108Z,11.00
2023-03-28T08:39:00.842Z,8.70
2023-03-28T08:41:57.183Z,10.60
2023-03-28T08:44:59.469Z,9.80
2023-03-28T08:47:38.304Z,9.00
2023-03-28T08:50:16.810Z,11.20
2023-03-28T08:55:30.946Z,10.30
2023-03-28T08:58:21.167Z,9.00
2023-03-28T09:00:53.819Z,9.70
2023-03-28T09:03:25.718Z,7.90
2023-03-28T09:06:25.195Z,8.70
2023-03-28T09:09:29.232Z,10.00
2023-03-28T09:12:40.035Z,8.30
2023-03-28T09:15:33.766Z,10.30
2023-03-28T09:18:26.321Z,10.00
2023-03-28T09:21:05.815Z,6.70
2023-03-28T09:23:56.653Z,7.30
2023-03-28T09:26:49.272Z,5.20
2023-03-28T09:29:45.250Z,10.00
2023-03-28T09:32:23.883Z,8.20
2023-03-28T09:34:55.345Z,9.30
2023-03-28T09:37:36.593Z,8.10
2023-03-28T09:40:18.875Z,9.40
2023-03-28T09:43:14.405Z,7.90
2023-03-28T09:46:00.361Z,10.60
2023-03-28T09:48:50.486Z,12.10
2023-03-28T09:51:34.039Z,8.20
2023-03-28T09:54:09.740Z,10.20
2023-03-28T09:56:43.342Z,8.60
2023-03-28T09:59:28.873Z,10.20
2023-03-28T10:02:04.241Z,11.90
2023-03-28T10:04:41.900Z,9.70
2023-03-28T10:07:33.530Z,14.60
2023-03-28T10:10:26.198Z,9.80
2023-03-28T10:13:20.697Z,8.50
2023-03-28T10:16:06.374Z,9.60
2023-03-28T10:18:58.484Z,11.80
2023-03-28T10:22:05.427Z,11.70
2023-03-28T10:24:39.906Z,7.70
2023-03-28T10:27:23.963Z,7.70
2023-03-28T10:29:59.976Z,9.20
2023-03-28T10:32:34.765Z,11.40
2023-03-28T10:35:31.486Z,13.10
2023-03-28T10:38:24.217Z,10.40
2023-03-28T10:41:26.128Z,7.20
2023-03-28T10:44:36.283Z,8.00
2023-03-28T10:47:28.043Z,9.50
2023-03-28T10:50:03.921Z,7.60
2023-03-28T10:52:48.637Z,10.60
2023-03-28T10:55:28.876Z,8.80
2023-03-28T10:58:23.268Z,7.80
2023-03-28T11:01:08.494Z,7.00
2023-03-28T11:04:12.019Z,10.90
2023-03-28T11:06:51.404Z,9.80
2023-03-28T11:09:47.511Z,9.40
2023-03-28T11:12:55.552Z,7.10
2023-03-28T11:15:35.316Z,8.80
2023-03-28T11:18:30.170Z,10.80
2023-03-28T11:21:16.184Z,11.20
2023-03-28T11:24:06.457Z,6.30
2023-03-28T11:27:23.450Z,7.00
2023-03-28T11:30:10.699Z,6.30
2023-03-28T11:32:51.940Z,5.80
2023-03-28T11:35:31.072Z,7.90
2023-03-28T11:38:11.094Z,6.00
2023-03-28T11:40:51.985Z,6.50
2023-03-28T11:43:34.014Z,6.90
2023-03-28T11:46:11.432Z,6.60
2023-03-28T11:48:51.489Z,6.90
2023-03-28T11:51:31.920Z,9.20
2023-03-28T11:54:10.765Z,9.70
2023-03-28T11:56:51.831Z,7.40
2023-03-28T11:59:34.337Z,6.50
2023-03-28T12:02:12.938Z,5.90
2023-03-28T12:04:49.856Z,6.50
2023-03-28T12:07:23.522Z,4.90
2023-03-28T12:10:18.107Z,6.60
2023-03-28T12:13:01.809Z,8.00
2023-03-28T12:15:38.914Z,6.30
2023-03-28T12:18:24.026Z,3.80
2023-03-28T12:21:01.263Z,4.30
2023-03-28T12:23:50.936Z,5.80
2023-03-28T12:26:59.501Z,7.40
2023-03-28T12:29:39.210Z,6.20
2023-03-28T12:32:25.781Z,8.30
2023-03-28T12:35:06.750Z,6.70
2023-03-28T12:38:06.983Z,7.30
2023-03-28T12:40:54.745Z,8.60
2023-03-28T12:43:33.244Z,7.20
2023-03-28T12:46:08.077Z,7.30
2023-03-28T12:48:43.607Z,6.10
2023-03-28T12:51:21.418Z,5.30
2023-03-28T12:54:07.227Z,6.50
2023-03-28T12:56:38.832Z,6.80
2023-03-28T12:59:50.321Z,6.50
2023-03-28T13:02:40.524Z,5.80
2023-03-28T13:05:21.157Z,7.20
2023-03-28T13:08:01.759Z,6.60
2023-03-28T13:10:42.466Z,5.90
2023-03-28T13:13:28.684Z,6.70
2023-03-28T13:16:13.789Z,6.60
2023-03-28T13:18:50.393Z,6.30
2023-03-28T13:21:44.654Z,6.00
2023-03-28T13:24:32.357Z,6.50
2023-03-28T13:27:07.637Z,8.60
2023-03-28T13:29:49.148Z,7.30
2023-03-28T13:34:57.656Z,7.00
2023-03-28T13:37:38.831Z,7.10
2023-03-28T13:40:36.563Z,6.50
2023-03-28T13:43:22.901Z,6.90
2023-03-28T13:45:57.524Z,7.20
2023-03-28T13:48:34.878Z,6.20
2023-03-28T13:51:08.374Z,5.30
2023-03-28T13:53:47.662Z,6.30
2023-03-28T13:56:28.930Z,7.70
2023-03-28T13:59:08.061Z,7.70
2023-03-28T14:01:49.813Z,7.30
2023-03-28T14:04:23.108Z,6.50
2023-03-28T14:06:54.968Z,8.20
2023-03-28T14:09:34.455Z,6.70
2023-03-28T14:12:23.382Z,6.10
2023-03-28T14:14:56.823Z,7.90
2023-03-28T14:17:30.621Z,4.90
2023-03-28T14:20:04.959Z,7.30
2023-03-28T14:22:52.842Z,7.50
2023-03-28T14:25:31.560Z,3.90
2023-03-28T14:28:09.747Z,6.00
2023-03-28T14:30:44.412Z,5.80
2023-03-28T14:33:22.286Z,4.60
2023-03-28T14:36:01.845Z,5.80
2023-03-28T14:38:35.364Z,8.20
2023-03-28T14:41:27.657Z,7.30
2023-03-28T14:43:59.774Z,4.10
2023-03-28T14:46:32.895Z,5.40
2023-03-28T14:49:09.490Z,7.70
2023-03-28T14:51:46.703Z,4.70
2023-03-28T14:54:23.187Z,5.60
2023-03-28T14:56:54.942Z,5.40
2023-03-28T14:59:32.288Z,6.30
2023-03-28T15:07:46.332Z,4.00
2023-03-28T15:10:26.394Z,6.50
2023-03-28T15:13:05.758Z,5.70
2023-03-28T15:15:43.655Z,5.10
2023-03-28T15:18:17.720Z,7.40
2023-03-28T15:21:11.759Z,5.90
2023-03-28T15:23:48.538Z,4.30
2023-03-28T15:26:26.373Z,5.20
2023-03-28T15:28:58.789Z,7.30
2023-03-28T15:31:30.330Z,5.80
2023-03-28T15:34:01.559Z,6.60
2023-03-28T15:36:34.843Z,4.80
2023-03-28T15:39:20.621Z,5.20
2023-03-28T15:41:54.262Z,8.60
2023-03-28T15:44:33.519Z,4.30
2023-03-28T15:47:07.252Z,7.20
2023-03-28T15:49:39.210Z,4.40
2023-03-28T15:52:18.683Z,5.90
2023-03-28T15:54:55.567Z,5.50
2023-03-28T15:57:31.029Z,7.60
2023-03-28T16:00:01.700Z,7.90
2023-03-28T16:02:44.220Z,5.30
2023-03-28T16:05:36.317Z,7.70
2023-03-28T16:08:24.545Z,6.00
2023-03-28T16:10:55.251Z,6.10
2023-03-28T16:13:44.458Z,4.30
2023-03-28T16:16:35.518Z,5.50
2023-03-28T16:19:21.164Z,5.10
2023-03-28T16:21:52.216Z,7.00
2023-03-28T16:24:34.752Z,7.00
2023-03-28T16:27:25.871Z,5.50
2023-03-28T16:29:56.891Z,6.10
2023-03-28T16:32:47.827Z,3.90
2023-03-28T16:35:30.209Z,5.90
2023-03-28T16:38:06.826Z,9.10
2023-03-28T16:40:40.843Z,6.40
2023-03-28T16:43:31.790Z,5.10
2023-03-28T16:46:02.949Z,6.30
2023-03-28T16:48:54.260Z,7.10
2023-03-28T16:51:25.754Z,8.10
2023-03-28T16:54:05.561Z,9.40
2023-03-28T16:56:36.855Z,5.30
2023-03-28T16:59:22.085Z,8.20
2023-03-28T17:01:56.176Z,5.60
2023-03-28T17:04:50.987Z,7.80
2023-03-28T17:07:22.362Z,5.80
2023-03-28T17:10:14.330Z,7.00
2023-03-28T17:12:54.180Z,7.40
2023-03-28T17:15:25.157Z,6.10
2023-03-28T17:17:56.801Z,6.20
2023-03-28T17:20:42.634Z,8.20
2023-03-28T17:23:13.609Z,6.30
2023-03-28T17:25:53.753Z,6.80
2023-03-28T17:28:35.107Z,7.80
2023-03-28T17:31:09.617Z,6.90
2023-03-28T17:33:43.348Z,6.20
2023-03-28T17:36:34.869Z,8.30
2023-03-28T17:39:09.842Z,6.10
2023-03-28T17:42:00.823Z,6.50
2023-03-28T17:44:34.582Z,4.70
2023-03-28T17:47:25.654Z,4.70
2023-03-28T17:50:00.520Z,8.10
2023-03-28T17:52:32.154Z,5.20
2023-03-28T17:55:14.118Z,5.70
2023-03-28T17:58:05.204Z,5.80
2023-03-28T18:00:38.617Z,7.80
2023-03-28T18:03:09.732Z,8.60
2023-03-28T18:06:04.188Z,9.50
2023-03-28T18:08:39.445Z,9.20
2023-03-28T18:11:22.495Z,7.40
2023-03-28T18:13:57.207Z,8.80
2023-03-28T18:16:38.838Z,7.90
2023-03-28T18:19:20.042Z,7.80
2023-03-28T18:22:09.066Z,7.20
2023-03-28T18:25:03.759Z,8.20
2023-03-28T18:28:03.409Z,9.00
2023-03-28T18:30:34.883Z,7.60
2023-03-28T18:33:17.426Z,8.30
2023-03-28T18:36:10.227Z,6.00
2023-03-28T18:39:01.547Z,7.80
2023-03-28T18:41:52.630Z,7.40
2023-03-28T18:44:43.722Z,6.00
2023-03-28T18:47:22.592Z,7.70
2023-03-28T18:50:15.242Z,6.90
2023-03-28T18:52:48.976Z,6.80
2023-03-28T18:55:20.008Z,9.60
2023-03-28T18:57:54.012Z,10.00
2023-03-28T19:00:27.905Z,7.30
2023-03-28T19:03:11.338Z,6.20
2023-03-28T19:05:42.710Z,7.50
2023-03-28T19:08:26.256Z,5.10
2023-03-28T19:10:59.616Z,6.50
2023-03-28T19:13:50.715Z,7.10
2023-03-28T19:16:24.744Z,8.20
2023-03-28T19:19:17.683Z,7.70
2023-03-28T19:22:01.246Z,6.90
2023-03-28T19:24:32.493Z,9.00
2023-03-28T19:27:06.069Z,8.60
2023-03-28T19:29:56.824Z,8.50
2023-03-28T19:32:30.808Z,7.40
2023-03-28T19:35:11.310Z,8.90
2023-03-28T19:38:02.938Z,9.50
2023-03-28T19:43:49.502Z,9.80
2023-03-28T19:46:33.088Z,9.20
2023-03-28T19:49:17.471Z,7.30
2023-03-28T19:51:56.616Z,8.80
2023-03-28T19:54:39.665Z,8.10
2023-03-28T19:57:30.960Z,8.20
2023-03-28T20:00:17.566Z,7.30
2023-03-28T20:03:08.826Z,9.70
2023-03-28T20:06:05.758Z,9.60
2023-03-28T20:08:55.166Z,7.20
2023-03-28T20:11:46.327Z,7.60
2023-03-28T20:14:28.172Z,8.50
2023-03-28T20:17:19.694Z,7.10
2023-03-28T20:20:12.985Z,9.40
2023-03-28T20:23:04.209Z,7.70
2023-03-28T20:25:48.569Z,7.70
2023-03-28T20:28:31.997Z,7.40
2023-03-28T20:31:03.607Z,7.50
2023-03-28T20:33:38.454Z,7.00
2023-03-28T20:36:20.562Z,11.20
2023-03-28T20:38:51.564Z,9.80
2023-03-28T20:41:27.347Z,10.00
2023-03-28T20:44:20.168Z,10.50
2023-03-28T20:46:51.207Z,10.40
2023-03-28T20:49:24.815Z,9.60
2023-03-28T20:51:55.645Z,10.80
2023-03-28T20:54:27.997Z,10.60
2023-03-28T20:57:01.722Z,9.40
2023-03-28T20:59:42.859Z,8.50
2023-03-28T21:02:34.337Z,9.90
2023-03-28T21:05:05.546Z,9.10
2023-03-28T21:07:46.227Z,9.00
2023-03-28T21:10:28.005Z,7.80
2023-03-28T21:13:09.921Z,8.50
2023-03-28T21:15:43.815Z,8.70
2023-03-28T21:18:14.625Z,9.50
2023-03-28T21:20:56.646Z,8.70
2023-03-28T21:23:29.459Z,7.60
2023-03-28T21:26:00.327Z,7.80
2023-03-28T21:28:31.160Z,5.90
2023-03-28T21:31:06.876Z,7.50
2023-03-28T21:33:58.044Z,7.30
2023-03-28T21:36:29.929Z,6.10
2023-03-28T21:39:00.516Z,5.60
2023-03-28T21:41:31.276Z,7.70
2023-03-28T21:44:04.443Z,8.40
2023-03-28T21:46:35.767Z,7.40
2023-03-28T21:49:15.594Z,4.90
2023-03-28T21:51:46.677Z,6.90
2023-03-28T21:54:19.908Z,6.00
2023-03-28T21:56:52.944Z,5.80
2023-03-28T21:59:23.884Z,8.40
2023-03-28T22:02:13.433Z,6.60
2023-03-28T22:04:48.406Z,5.20
2023-03-28T22:07:26.544Z,7.00
2023-03-28T22:10:01.202Z,4.90
2023-03-28T22:12:34.994Z,6.10
2023-03-28T22:15:26.393Z,6.70
2023-03-28T22:18:17.536Z,5.40
2023-03-28T22:21:04.098Z,5.80
2023-03-28T22:23:47.708Z,5.20
2023-03-28T22:26:21.876Z,5.80
2023-03-28T22:28:52.630Z,8.70
2023-03-28T22:31:26.051Z,6.20
2023-03-28T22:33:57.140Z,6.40
2023-03-28T22:36:49.432Z,5.70
2023-03-28T22:39:21.798Z,7.00
2023-03-28T22:41:55.601Z,4.90
2023-03-28T22:44:39.123Z,7.50
2023-03-28T22:47:30.434Z,7.00
2023-03-28T22:50:22.595Z,5.90
2023-03-28T22:52:56.361Z,5.50
2023-03-28T22:55:29.823Z,4.90
2023-03-28T22:58:00.690Z,5.70
2023-03-28T23:00:31.853Z,7.60
2023-03-28T23:03:03.186Z,6.40
2023-03-28T23:05:49.793Z,8.10
2023-03-28T23:08:21.229Z,7.60
2023-03-28T23:10:54.707Z,5.60
2023-03-28T23:13:28.370Z,6.80
2023-03-28T23:16:01.361Z,6.60
2023-03-28T23:18:52.184Z,6.70
2023-03-28T23:21:32.260Z,5.50
2023-03-28T23:24:06.968Z,6.20
2023-03-28T23:26:50.735Z,6.30
2023-03-28T23:29:31.328Z,4.60
2023-03-28T23:32:13.105Z,7.40
2023-03-28T23:34:43.781Z,5.30
2023-03-28T23:37:16.588Z,5.10
2023-03-28T23:39:50.186Z,4.80
2023-03-28T23:42:42.824Z,7.00
2023-03-28T23:45:26.881Z,5.20
2023-03-28T23:48:17.992Z,7.10
2023-03-28T23:50:58.939Z,4.90
2023-03-28T23:53:29.993Z,5.10
2023-03-28T23:56:05.192Z,6.80
2023-03-28T23:58:38.301Z,7.30
